Fort Ross, California
Current Conditions -  °F | °C
As of 6:56 PM on Friday 19 Dec 2014 (Local Time) from KSTS Reporting Station
Haze Haze  
Wind Chill: 54°   Ceiling: 700
Heat Index: 54°   Visibility: 5mi
Dew Point: 54°   Wind: 5mph
Humidity: 100%   Direction: 180°S
Pressure: 30.11"   Gusts: NA
Location:  38.4962°N, 123.173°W
Report Text: KSTS 200256Z 18004KT 5SM BR BKN007 BKN013 12/12 A3011 RMK AO2
Loading
Personal Weather Stations






























Interactive Weather Map New forecast layout! Learn more

10-Day Weather Forecast

Advertisements
Track Severe Weather on mobile